createdAt,value
2018-03-30T00:00:50.082Z,1002.20
2018-03-30T00:01:50.049Z,1002.19
2018-03-30T00:02:50.026Z,1002.19
2018-03-30T00:03:50.026Z,1002.19
2018-03-30T00:04:49.985Z,1002.19
2018-03-30T00:05:49.976Z,1002.23
2018-03-30T00:06:49.950Z,1002.21
2018-03-30T00:07:49.928Z,1002.21
2018-03-30T00:08:49.930Z,1002.13
2018-03-30T00:09:49.911Z,1002.16
2018-03-30T00:10:49.882Z,1002.19
2018-03-30T00:11:49.863Z,1002.16
2018-03-30T00:12:49.847Z,1002.18
2018-03-30T00:13:49.824Z,1002.15
2018-03-30T00:14:49.826Z,1002.19
2018-03-30T00:15:49.794Z,1002.17
2018-03-30T00:16:49.773Z,1002.16
2018-03-30T00:17:49.765Z,1002.12
2018-03-30T00:18:49.739Z,1002.15
2018-03-30T00:19:49.737Z,1002.13
2018-03-30T00:20:49.703Z,1002.12
2018-03-30T00:21:49.701Z,1002.09
2018-03-30T00:22:49.669Z,1002.11
2018-03-30T00:23:49.653Z,1002.11
2018-03-30T00:24:49.633Z,1002.15
2018-03-30T00:25:49.613Z,1002.11
2018-03-30T00:26:49.598Z,1002.13
2018-03-30T00:27:49.592Z,1002.10
2018-03-30T00:28:49.562Z,1002.10
2018-03-30T00:29:49.561Z,1002.08
2018-03-30T00:30:49.524Z,1002.09
2018-03-30T00:31:49.535Z,1002.12
2018-03-30T00:32:49.494Z,1002.11
2018-03-30T00:33:49.469Z,1002.12
2018-03-30T00:34:49.454Z,1002.12
2018-03-30T00:35:49.433Z,1002.10
2018-03-30T00:36:49.416Z,1002.15
2018-03-30T00:37:49.421Z,1002.12
2018-03-30T00:38:49.397Z,1002.05
2018-03-30T00:39:49.369Z,1002.07
2018-03-30T00:40:49.347Z,1002.12
2018-03-30T00:41:49.324Z,1002.10
2018-03-30T00:42:49.302Z,1002.12
2018-03-30T00:43:49.305Z,1002.10
2018-03-30T00:44:49.275Z,1002.10
2018-03-30T00:45:49.259Z,1002.08
2018-03-30T00:46:49.234Z,1002.08
2018-03-30T00:47:49.225Z,1002.03
2018-03-30T00:48:49.200Z,1002.05
2018-03-30T00:49:49.201Z,1002.02
2018-03-30T00:50:49.169Z,1002.02
2018-03-30T00:51:49.146Z,1002.04
2018-03-30T00:52:49.134Z,1002.02
2018-03-30T00:53:49.114Z,1001.99
2018-03-30T00:54:49.114Z,1001.95
2018-03-30T00:55:49.076Z,1001.97
2018-03-30T00:56:49.059Z,1001.99
2018-03-30T00:57:49.044Z,1001.95
2018-03-30T00:58:49.024Z,1001.92
2018-03-30T00:59:49.000Z,1001.88
2018-03-30T01:00:49.008Z,1001.86
2018-03-30T01:01:48.977Z,1001.85
2018-03-30T01:02:48.954Z,1001.82
2018-03-30T01:03:48.935Z,1001.77
2018-03-30T01:04:48.933Z,1001.76
2018-03-30T01:05:48.897Z,1001.76
2018-03-30T01:06:48.880Z,1001.79
2018-03-30T01:07:48.890Z,1001.77
2018-03-30T01:08:48.843Z,1001.75
2018-03-30T01:09:48.830Z,1001.77
2018-03-30T01:10:48.810Z,1001.76
2018-03-30T01:11:48.807Z,1001.71
2018-03-30T01:12:48.774Z,1001.73
2018-03-30T01:13:48.780Z,1001.69
2018-03-30T01:14:48.795Z,1001.68
2018-03-30T01:15:48.724Z,1001.65
2018-03-30T01:16:48.704Z,1001.65
2018-03-30T01:17:48.708Z,1001.66
2018-03-30T01:18:48.670Z,1001.65
2018-03-30T01:19:48.650Z,1001.68
2018-03-30T01:20:48.631Z,1001.65
2018-03-30T01:21:48.614Z,1001.71
2018-03-30T01:22:48.600Z,1001.69
2018-03-30T01:23:48.596Z,1001.65
2018-03-30T01:24:48.558Z,1001.63
2018-03-30T01:25:48.554Z,1001.61
2018-03-30T01:26:48.526Z,1001.62
2018-03-30T01:27:48.525Z,1001.56
2018-03-30T01:28:48.488Z,1001.58
2018-03-30T01:29:48.473Z,1001.62
2018-03-30T01:30:48.481Z,1001.61
2018-03-30T01:31:48.435Z,1001.57
2018-03-30T01:32:48.415Z,1001.60
2018-03-30T01:33:48.400Z,1001.61
2018-03-30T01:34:48.399Z,1001.55
2018-03-30T01:35:48.365Z,1001.51
2018-03-30T01:36:48.359Z,1001.52
2018-03-30T01:37:48.330Z,1001.47
2018-03-30T01:38:48.333Z,1001.48
2018-03-30T01:39:48.315Z,1001.51
2018-03-30T01:40:48.278Z,1001.44
2018-03-30T01:41:48.264Z,1001.46
2018-03-30T01:42:48.248Z,1001.45
2018-03-30T01:43:48.233Z,1001.44
2018-03-30T01:44:48.223Z,1001.46
2018-03-30T01:45:48.187Z,1001.42
2018-03-30T01:46:48.167Z,1001.42
2018-03-30T01:47:48.146Z,1001.42
2018-03-30T01:48:48.127Z,1001.42
2018-03-30T01:49:48.143Z,1001.41
2018-03-30T01:50:48.106Z,1001.41
2018-03-30T01:51:48.084Z,1001.36
2018-03-30T01:52:48.062Z,1001.40
2018-03-30T01:53:48.048Z,1001.36
2018-03-30T01:54:48.034Z,1001.34
2018-03-30T01:55:48.027Z,1001.34
2018-03-30T01:56:47.992Z,1001.36
2018-03-30T01:57:47.980Z,1001.33
2018-03-30T01:58:47.960Z,1001.32
2018-03-30T01:59:47.958Z,1001.32
2018-03-30T02:00:47.933Z,1001.30
2018-03-30T02:01:47.919Z,1001.30
2018-03-30T02:02:47.886Z,1001.29
2018-03-30T02:03:47.881Z,1001.30
2018-03-30T02:04:47.852Z,1001.29
2018-03-30T02:05:47.847Z,1001.24
2018-03-30T02:06:47.830Z,1001.27
2018-03-30T02:07:47.820Z,1001.23
2018-03-30T02:08:47.774Z,1001.25
2018-03-30T02:09:47.763Z,1001.25
2018-03-30T02:10:47.742Z,1001.26
2018-03-30T02:11:47.732Z,1001.27
2018-03-30T02:12:47.741Z,1001.30
2018-03-30T02:13:47.697Z,1001.27
2018-03-30T02:14:47.689Z,1001.21
2018-03-30T02:15:47.660Z,1001.25
2018-03-30T02:16:47.638Z,1001.23
2018-03-30T02:17:47.619Z,1001.23
2018-03-30T02:18:47.719Z,1001.25
2018-03-30T02:19:47.603Z,1001.19
2018-03-30T02:20:47.568Z,1001.21
2018-03-30T02:21:47.556Z,1001.20
2018-03-30T02:22:47.552Z,1001.18
2018-03-30T02:23:47.558Z,1001.19
2018-03-30T02:24:47.495Z,1001.23
2018-03-30T02:25:47.480Z,1001.22
2018-03-30T02:26:47.468Z,1001.18
2018-03-30T02:27:47.447Z,1001.21
2018-03-30T02:28:47.446Z,1001.17
2018-03-30T02:29:47.532Z,1001.14
2018-03-30T02:30:47.430Z,1001.13
2018-03-30T02:31:47.375Z,1001.12
2018-03-30T02:32:47.361Z,1001.14
2018-03-30T02:33:47.335Z,1001.09
2018-03-30T02:34:47.340Z,1001.07
2018-03-30T02:35:47.299Z,1001.04
2018-03-30T02:36:47.281Z,1001.05
2018-03-30T02:37:47.265Z,1001.07
2018-03-30T02:38:47.267Z,1001.09
2018-03-30T02:39:47.228Z,1001.11
2018-03-30T02:40:47.209Z,1001.05
2018-03-30T02:41:47.190Z,1001.09
2018-03-30T02:42:47.179Z,1001.09
2018-03-30T02:43:47.157Z,1001.09
2018-03-30T02:44:47.164Z,1001.11
2018-03-30T02:45:47.117Z,1001.13
2018-03-30T02:46:47.122Z,1001.14
2018-03-30T02:47:47.081Z,1001.23
2018-03-30T02:48:47.068Z,1001.19
2018-03-30T02:49:47.050Z,1001.22
2018-03-30T02:50:47.045Z,1001.25
2018-03-30T02:51:47.028Z,1001.24
2018-03-30T02:52:46.991Z,1001.28
2018-03-30T02:53:46.982Z,1001.28
2018-03-30T02:54:46.964Z,1001.29
2018-03-30T02:55:46.961Z,1001.26
2018-03-30T02:56:46.933Z,1001.24
2018-03-30T02:57:46.938Z,1001.24
2018-03-30T02:58:46.888Z,1001.24
2018-03-30T02:59:46.875Z,1001.23
2018-03-30T03:00:46.864Z,1001.25
2018-03-30T03:01:46.834Z,1001.27
2018-03-30T03:02:46.817Z,1001.28
2018-03-30T03:03:46.813Z,1001.32
2018-03-30T03:04:46.785Z,1001.25
2018-03-30T03:05:46.762Z,1001.30
2018-03-30T03:06:46.739Z,1001.29
2018-03-30T03:07:46.741Z,1001.20
2018-03-30T03:08:46.726Z,1001.24
2018-03-30T03:09:46.688Z,1001.25
2018-03-30T03:10:46.677Z,1001.21
2018-03-30T03:11:46.668Z,1001.21
2018-03-30T03:12:46.639Z,1001.18
2018-03-30T03:13:46.644Z,1001.18
2018-03-30T03:14:46.607Z,1001.17
2018-03-30T03:15:46.595Z,1001.16
2018-03-30T03:16:46.572Z,1001.14
2018-03-30T03:17:46.544Z,1001.10
2018-03-30T03:18:46.531Z,1001.12
2018-03-30T03:19:46.528Z,1001.08
2018-03-30T03:20:46.496Z,1001.14
2018-03-30T03:21:46.477Z,1001.12
2018-03-30T03:22:46.458Z,1001.11
2018-03-30T03:23:46.456Z,1001.09
2018-03-30T03:24:46.424Z,1001.08
2018-03-30T03:25:46.405Z,1001.08
2018-03-30T03:26:46.384Z,1001.07
2018-03-30T03:27:46.395Z,1001.08
2018-03-30T03:28:46.403Z,1001.09
2018-03-30T03:29:46.332Z,1001.07
2018-03-30T03:30:46.327Z,1001.06
2018-03-30T03:31:46.316Z,1001.05
2018-03-30T03:32:46.280Z,1001.08
2018-03-30T03:33:46.263Z,1001.09
2018-03-30T03:34:46.249Z,1001.08
2018-03-30T03:35:46.240Z,1001.03
2018-03-30T03:36:46.210Z,1000.98
2018-03-30T03:37:46.205Z,1000.96
2018-03-30T03:38:46.173Z,1000.99
2018-03-30T03:39:46.160Z,1000.96
2018-03-30T03:40:46.139Z,1000.94
2018-03-30T03:41:46.116Z,1000.96
2018-03-30T03:42:46.104Z,1001.02
2018-03-30T03:43:46.095Z,1001.01
2018-03-30T03:44:46.064Z,1000.96
2018-03-30T03:45:46.046Z,1000.96
2018-03-30T03:46:46.041Z,1000.95
2018-03-30T03:47:46.011Z,1000.96
2018-03-30T03:48:46.021Z,1000.91
2018-03-30T03:49:45.972Z,1000.92
2018-03-30T03:50:45.964Z,1000.94
2018-03-30T03:51:45.942Z,1000.93
2018-03-30T03:52:45.926Z,1000.92
2018-03-30T03:53:45.923Z,1000.94
2018-03-30T03:54:45.905Z,1000.96
2018-03-30T03:55:45.867Z,1000.95
2018-03-30T03:56:45.857Z,1000.97
2018-03-30T03:57:45.833Z,1000.93
2018-03-30T03:58:45.817Z,1000.93
2018-03-30T03:59:45.811Z,1000.91
2018-03-30T04:00:45.787Z,1000.90
2018-03-30T04:01:45.764Z,1000.91
2018-03-30T04:02:45.747Z,1000.88
2018-03-30T04:03:45.736Z,1000.86
2018-03-30T04:04:45.722Z,1000.86
2018-03-30T04:05:45.693Z,1000.87
2018-03-30T04:06:45.679Z,1000.86
2018-03-30T04:07:45.661Z,1000.92
2018-03-30T04:08:45.640Z,1000.94
2018-03-30T04:09:45.650Z,1000.90
2018-03-30T04:10:45.608Z,1000.90
2018-03-30T04:11:45.587Z,1000.93
2018-03-30T04:12:45.569Z,1000.93
2018-03-30T04:13:45.552Z,1000.93
2018-03-30T04:14:45.550Z,1000.93
2018-03-30T04:15:45.522Z,1000.91
2018-03-30T04:16:45.517Z,1000.88
2018-03-30T04:17:45.483Z,1000.87
2018-03-30T04:18:45.471Z,1000.90
2018-03-30T04:19:45.452Z,1000.84
2018-03-30T04:20:45.420Z,1000.86
2018-03-30T04:21:45.427Z,1000.84
2018-03-30T04:22:45.388Z,1000.86
2018-03-30T04:23:45.381Z,1000.81
2018-03-30T04:24:45.380Z,1000.81
2018-03-30T04:25:45.343Z,1000.80
2018-03-30T04:26:45.352Z,1000.75
2018-03-30T04:27:45.320Z,1000.77
2018-03-30T04:28:45.284Z,1000.74
2018-03-30T04:29:45.271Z,1000.71
2018-03-30T04:30:45.248Z,1000.70
2018-03-30T04:31:45.237Z,1000.68
2018-03-30T04:32:45.229Z,1000.70
2018-03-30T04:33:45.195Z,1000.67
2018-03-30T04:34:45.176Z,1000.68
2018-03-30T04:35:45.199Z,1000.65
2018-03-30T04:36:45.141Z,1000.63
2018-03-30T04:37:45.142Z,1000.64
2018-03-30T04:38:45.103Z,1000.65
2018-03-30T04:39:45.091Z,1000.58
2018-03-30T04:40:45.088Z,1000.60
2018-03-30T04:41:45.054Z,1000.58
2018-03-30T04:42:45.042Z,1000.62
2018-03-30T04:43:45.030Z,1000.59
2018-03-30T04:44:45.019Z,1000.54
2018-03-30T04:45:44.987Z,1000.53
2018-03-30T04:46:44.970Z,1000.58
2018-03-30T04:47:44.966Z,1000.53
2018-03-30T04:48:44.931Z,1000.64
2018-03-30T04:49:44.915Z,1000.70
2018-03-30T04:50:44.903Z,1000.72
2018-03-30T04:51:44.893Z,1000.76
2018-03-30T04:52:44.864Z,1000.73
2018-03-30T04:53:44.839Z,1000.73
2018-03-30T04:54:44.866Z,1000.72
2018-03-30T04:55:44.829Z,1000.70
2018-03-30T04:56:44.787Z,1000.76
2018-03-30T04:57:44.793Z,1000.77
2018-03-30T04:58:44.753Z,1000.81
2018-03-30T04:59:44.756Z,1000.86
2018-03-30T05:00:44.718Z,1000.85
2018-03-30T05:01:44.719Z,1000.83
2018-03-30T05:02:44.677Z,1000.82
2018-03-30T05:03:44.682Z,1000.81
2018-03-30T05:04:44.655Z,1000.81
2018-03-30T05:05:44.627Z,1000.79
2018-03-30T05:06:44.628Z,1000.79
2018-03-30T05:07:44.596Z,1000.78
2018-03-30T05:08:44.569Z,1000.80
2018-03-30T05:09:44.553Z,1000.77
2018-03-30T05:10:44.537Z,1000.76
2018-03-30T05:11:44.532Z,1000.78
2018-03-30T05:12:44.526Z,1000.79
2018-03-30T05:13:44.491Z,1000.76
2018-03-30T05:14:44.480Z,1000.76
2018-03-30T05:15:44.443Z,1000.80
2018-03-30T05:16:44.431Z,1000.80
2018-03-30T05:17:44.420Z,1000.77
2018-03-30T05:18:44.387Z,1000.78
2018-03-30T05:19:44.374Z,1000.78
2018-03-30T05:20:44.361Z,1000.81
2018-03-30T05:21:44.339Z,1000.80
2018-03-30T05:22:44.349Z,1000.78
2018-03-30T05:23:44.300Z,1000.75
2018-03-30T05:24:44.308Z,1000.73
2018-03-30T05:25:44.268Z,1000.68
2018-03-30T05:26:44.249Z,1000.68
2018-03-30T05:27:44.225Z,1000.69
2018-03-30T05:28:44.228Z,1000.72
2018-03-30T05:29:44.229Z,1000.69
2018-03-30T05:30:44.185Z,1000.71
2018-03-30T05:31:44.169Z,1000.65
2018-03-30T05:32:44.150Z,1000.68
2018-03-30T05:33:44.141Z,1000.70
2018-03-30T05:35:05.117Z,1000.69
2018-03-30T05:35:44.115Z,1000.65
2018-03-30T05:36:44.084Z,1000.63
2018-03-30T05:37:44.049Z,1000.59
2018-03-30T05:38:44.036Z,1000.58
2018-03-30T05:39:44.121Z,1000.57
2018-03-30T05:40:43.998Z,1000.56
2018-03-30T05:41:43.973Z,1000.55
2018-03-30T05:42:43.983Z,1000.53
2018-03-30T05:43:43.942Z,1000.53
2018-03-30T05:44:43.940Z,1000.52
2018-03-30T05:45:43.928Z,1000.51
2018-03-30T05:46:43.896Z,1000.52
2018-03-30T05:47:43.870Z,1000.51
2018-03-30T05:48:43.849Z,1000.52
2018-03-30T05:49:43.851Z,1000.54
2018-03-30T05:50:43.835Z,1000.49
2018-03-30T05:51:43.812Z,1000.51
2018-03-30T05:52:43.787Z,1000.46
2018-03-30T05:53:43.780Z,1000.48
2018-03-30T05:54:43.751Z,1000.46
2018-03-30T05:55:43.742Z,1000.47
2018-03-30T05:56:44.519Z,1000.47
2018-03-30T05:57:43.693Z,1000.41
2018-03-30T05:58:43.697Z,1000.45
2018-03-30T05:59:43.708Z,1000.45
2018-03-30T06:00:43.642Z,1000.44
2018-03-30T06:01:43.620Z,1000.48
2018-03-30T06:02:43.598Z,1000.51
2018-03-30T06:03:43.591Z,1000.54
2018-03-30T06:04:43.589Z,1000.50
2018-03-30T06:05:43.546Z,1000.53
2018-03-30T06:06:43.530Z,1000.51
2018-03-30T06:07:43.524Z,1000.49
2018-03-30T06:08:43.504Z,1000.47
2018-03-30T06:09:43.495Z,1000.42
2018-03-30T06:10:43.526Z,1000.41
2018-03-30T06:11:43.448Z,1000.42
2018-03-30T06:12:43.428Z,1000.38
2018-03-30T06:13:44.043Z,1000.37
2018-03-30T06:14:43.419Z,1000.34
2018-03-30T06:15:43.459Z,1000.31
2018-03-30T06:16:43.376Z,1000.26
2018-03-30T06:17:43.346Z,1000.26
2018-03-30T06:18:43.362Z,1000.23
2018-03-30T06:19:43.310Z,1000.28
2018-03-30T06:20:43.336Z,1000.26
2018-03-30T06:21:43.280Z,1000.16
2018-03-30T06:22:43.255Z,1000.16
2018-03-30T06:23:43.335Z,1000.16
2018-03-30T06:24:43.216Z,1000.20
2018-03-30T06:25:44.006Z,1000.25
2018-03-30T06:27:04.202Z,1000.30
2018-03-30T06:27:43.190Z,1000.31
2018-03-30T06:28:43.148Z,1000.37
2018-03-30T06:29:43.163Z,1000.31
2018-03-30T06:30:43.108Z,1000.31
2018-03-30T06:31:43.169Z,1000.32
2018-03-30T06:32:43.120Z,1000.36
2018-03-30T06:33:43.061Z,1000.36
2018-03-30T06:34:43.181Z,1000.36
2018-03-30T06:35:43.107Z,1000.34
2018-03-30T06:36:44.009Z,1000.32
2018-03-30T06:37:44.465Z,1000.32
2018-03-30T06:38:43.004Z,1000.30
2018-03-30T06:39:42.980Z,1000.33
2018-03-30T06:40:43.462Z,1000.31
2018-03-30T06:41:43.535Z,1000.28
2018-03-30T06:42:42.906Z,1000.30
2018-03-30T06:43:42.999Z,1000.34
2018-03-30T06:44:43.214Z,1000.31
2018-03-30T06:45:42.862Z,1000.30
2018-03-30T06:46:42.836Z,1000.32
2018-03-30T06:47:42.817Z,1000.30
2018-03-30T06:48:42.815Z,1000.27
2018-03-30T06:49:42.835Z,1000.29
2018-03-30T06:50:42.788Z,1000.29
2018-03-30T06:51:42.744Z,1000.35
2018-03-30T06:52:45.541Z,1000.31
2018-03-30T06:53:42.729Z,1000.31
2018-03-30T06:54:42.786Z,1000.30
2018-03-30T06:55:42.705Z,1000.32
2018-03-30T06:56:42.687Z,1000.30
2018-03-30T06:57:42.670Z,1000.27
2018-03-30T06:58:44.577Z,1000.34
2018-03-30T06:59:42.647Z,1000.30
2018-03-30T07:00:42.617Z,1000.32
2018-03-30T07:01:42.591Z,1000.31
2018-03-30T07:02:42.606Z,1000.29
2018-03-30T07:03:42.546Z,1000.28
2018-03-30T07:04:42.550Z,1000.23
2018-03-30T07:05:42.511Z,1000.27
2018-03-30T07:06:42.513Z,1000.27
2018-03-30T07:07:42.507Z,1000.26
2018-03-30T07:08:42.453Z,1000.17
2018-03-30T07:09:42.437Z,1000.23
2018-03-30T07:10:42.442Z,1000.20
2018-03-30T07:11:42.448Z,1000.23
2018-03-30T07:12:42.393Z,1000.23
2018-03-30T07:13:42.365Z,1000.23
2018-03-30T07:14:42.377Z,1000.27
2018-03-30T07:15:43.149Z,1000.24
2018-03-30T07:16:45.676Z,1000.24
2018-03-30T07:17:44.070Z,1000.24
2018-03-30T07:18:42.540Z,1000.25
2018-03-30T07:19:42.264Z,1000.28
2018-03-30T07:20:42.249Z,1000.25
2018-03-30T07:21:42.268Z,1000.31
2018-03-30T07:22:42.230Z,1000.31
2018-03-30T07:23:42.189Z,1000.33
2018-03-30T07:24:42.201Z,1000.27
2018-03-30T07:25:42.287Z,1000.30
2018-03-30T07:26:42.159Z,1000.28
2018-03-30T07:27:42.134Z,1000.34
2018-03-30T07:28:42.181Z,1000.32
2018-03-30T07:29:42.104Z,1000.31
2018-03-30T07:30:42.087Z,1000.30
2018-03-30T07:31:42.090Z,1000.28
2018-03-30T07:32:42.047Z,1000.28
2018-03-30T07:33:42.045Z,1000.23
2018-03-30T07:34:42.056Z,1000.23
2018-03-30T07:35:42.491Z,1000.28
2018-03-30T07:36:41.995Z,1000.17
2018-03-30T07:37:42.050Z,1000.19
2018-03-30T07:38:41.967Z,1000.14
2018-03-30T07:39:42.047Z,1000.15
2018-03-30T07:40:42.582Z,1000.15
2018-03-30T07:41:41.891Z,1000.14
2018-03-30T07:42:41.876Z,1000.12
2018-03-30T07:43:44.573Z,1000.03
2018-03-30T07:44:41.848Z,1000.06
2018-03-30T07:45:41.929Z,1000.04
2018-03-30T07:46:41.848Z,1000.07
2018-03-30T07:47:41.854Z,1000.05
2018-03-30T07:48:41.800Z,1000.03
2018-03-30T07:49:41.776Z,1000.04
2018-03-30T07:50:41.755Z,1000.03
2018-03-30T07:51:41.784Z,999.97
2018-03-30T07:52:41.748Z,999.97
2018-03-30T07:53:41.700Z,999.99
2018-03-30T07:54:42.585Z,999.94
2018-03-30T07:55:41.884Z,999.92
2018-03-30T07:56:41.677Z,999.98
2018-03-30T07:57:41.701Z,999.96
2018-03-30T07:58:41.637Z,999.94
2018-03-30T07:59:41.600Z,999.96
2018-03-30T08:00:41.615Z,999.97
2018-03-30T08:01:41.568Z,1000.01
2018-03-30T08:02:41.554Z,999.97
2018-03-30T08:03:41.563Z,999.93
2018-03-30T08:04:41.537Z,999.89
2018-03-30T08:05:41.518Z,999.95
2018-03-30T08:06:41.518Z,999.89
2018-03-30T08:07:41.491Z,999.88
2018-03-30T08:08:41.468Z,999.89
2018-03-30T08:09:41.547Z,999.82
2018-03-30T08:10:41.452Z,999.88
2018-03-30T08:11:41.433Z,999.89
2018-03-30T08:12:41.416Z,999.85
2018-03-30T08:13:41.391Z,999.84
2018-03-30T08:14:41.387Z,999.84
2018-03-30T08:15:41.367Z,999.82
2018-03-30T08:16:41.364Z,999.78
2018-03-30T08:17:41.305Z,999.75
2018-03-30T08:18:41.296Z,999.74
2018-03-30T08:19:41.301Z,999.72
2018-03-30T08:20:41.278Z,999.70
2018-03-30T08:21:41.375Z,999.73
2018-03-30T08:22:41.269Z,999.70
2018-03-30T08:23:41.980Z,999.69
2018-03-30T08:24:41.208Z,999.68
2018-03-30T08:25:41.258Z,999.68
2018-03-30T08:26:43.138Z,999.67
2018-03-30T08:27:42.064Z,999.67
2018-03-30T08:28:41.143Z,999.66
2018-03-30T08:29:41.135Z,999.63
2018-03-30T08:30:41.182Z,999.60
2018-03-30T08:31:41.091Z,999.55
2018-03-30T08:32:41.103Z,999.52
2018-03-30T08:33:41.071Z,999.52
2018-03-30T08:34:41.048Z,999.51
2018-03-30T08:35:41.019Z,999.50
2018-03-30T08:36:41.035Z,999.45
2018-03-30T08:37:41.080Z,999.45
2018-03-30T08:38:41.026Z,999.51
2018-03-30T08:39:40.981Z,999.45
2018-03-30T08:40:40.949Z,999.47
2018-03-30T08:41:40.965Z,999.47
2018-03-30T08:42:40.922Z,999.48
2018-03-30T08:43:40.910Z,999.46
2018-03-30T08:44:40.904Z,999.46
2018-03-30T08:45:40.882Z,999.47
2018-03-30T08:46:40.870Z,999.45
2018-03-30T08:47:40.845Z,999.46
2018-03-30T08:48:40.841Z,999.49
2018-03-30T08:49:40.832Z,999.44
2018-03-30T08:50:40.821Z,999.40
2018-03-30T08:51:40.782Z,999.38
2018-03-30T08:52:40.791Z,999.41
2018-03-30T08:53:40.778Z,999.38
2018-03-30T08:54:40.740Z,999.38
2018-03-30T08:55:40.740Z,999.31
2018-03-30T08:56:40.700Z,999.31
2018-03-30T08:57:40.692Z,999.30
2018-03-30T08:58:40.714Z,999.27
2018-03-30T08:59:40.712Z,999.17
2018-03-30T09:00:40.644Z,999.15
2018-03-30T09:01:40.622Z,999.15
2018-03-30T09:02:40.628Z,999.23
2018-03-30T09:03:40.626Z,999.16
2018-03-30T09:04:40.610Z,999.17
2018-03-30T09:05:40.610Z,999.16
2018-03-30T09:06:40.553Z,999.16
2018-03-30T09:07:40.530Z,999.17
2018-03-30T09:08:40.521Z,999.12
2018-03-30T09:09:40.553Z,999.17
2018-03-30T09:10:40.533Z,999.14
2018-03-30T09:11:40.509Z,999.11
2018-03-30T09:12:40.494Z,999.08
2018-03-30T09:13:40.440Z,999.12
2018-03-30T09:14:40.431Z,999.10
2018-03-30T09:15:40.412Z,999.08
2018-03-30T09:16:40.424Z,999.08
2018-03-30T09:17:40.386Z,999.13
2018-03-30T09:18:40.407Z,999.10
2018-03-30T09:19:40.396Z,999.11
2018-03-30T09:20:40.360Z,999.13
2018-03-30T09:21:40.365Z,999.17
2018-03-30T09:22:40.336Z,999.17
2018-03-30T09:23:40.312Z,999.20
2018-03-30T09:24:40.311Z,999.21
2018-03-30T09:25:40.289Z,999.10
2018-03-30T09:26:40.278Z,999.10
2018-03-30T09:27:40.277Z,999.14
2018-03-30T09:28:40.275Z,999.12
2018-03-30T09:29:40.236Z,999.09
2018-03-30T09:30:41.163Z,999.03
2018-03-30T09:31:40.202Z,999.13
2018-03-30T09:32:40.265Z,999.03
2018-03-30T09:33:40.208Z,999.02
2018-03-30T09:34:40.178Z,999.01
2018-03-30T09:35:41.101Z,998.94
2018-03-30T09:36:40.149Z,998.90
2018-03-30T09:37:40.146Z,998.92
2018-03-30T09:38:40.196Z,998.96
2018-03-30T09:39:41.082Z,998.94
2018-03-30T09:40:45.494Z,998.92
2018-03-30T09:41:40.365Z,998.92
2018-03-30T09:42:44.167Z,998.91
2018-03-30T09:43:45.590Z,998.90
2018-03-30T09:44:52.127Z,998.89
2018-03-30T09:45:40.045Z,998.95
2018-03-30T09:46:41.029Z,998.90
2018-03-30T09:47:40.034Z,998.88
2018-03-30T09:48:48.497Z,998.94
2018-03-30T09:49:40.067Z,998.90
2018-03-30T09:50:40.004Z,998.86
2018-03-30T09:51:39.977Z,998.82
2018-03-30T09:52:44.498Z,998.78
2018-03-30T09:53:40.001Z,998.77
2018-03-30T09:54:39.954Z,998.76
2018-03-30T09:55:39.936Z,998.78
2018-03-30T09:56:39.973Z,998.80
2018-03-30T09:57:40.587Z,998.81
2018-03-30T09:58:41.580Z,998.82
2018-03-30T09:59:39.922Z,998.78
2018-03-30T10:00:39.874Z,998.73
2018-03-30T10:01:40.038Z,998.79
2018-03-30T10:02:40.604Z,998.85
2018-03-30T10:03:41.578Z,998.69
2018-03-30T10:04:40.108Z,998.70
2018-03-30T10:05:39.813Z,998.71
2018-03-30T10:06:39.817Z,998.73
2018-03-30T10:07:40.155Z,998.64
2018-03-30T10:08:39.790Z,998.65
2018-03-30T10:09:39.798Z,998.58
2018-03-30T10:10:40.157Z,998.65
2018-03-30T10:11:42.640Z,998.61
2018-03-30T10:12:41.021Z,998.57
2018-03-30T10:13:39.767Z,998.64
2018-03-30T10:14:40.121Z,998.57
2018-03-30T10:15:39.777Z,998.58
2018-03-30T10:16:56.636Z,998.53
2018-03-30T10:17:40.629Z,998.52
2018-03-30T10:18:41.760Z,998.57
2018-03-30T10:19:39.740Z,998.52
2018-03-30T10:20:39.708Z,998.60
2018-03-30T10:21:39.696Z,998.59
2018-03-30T10:22:40.508Z,998.50
2018-03-30T10:23:39.689Z,998.49
2018-03-30T10:24:39.647Z,998.52
2018-03-30T10:25:39.631Z,998.42
2018-03-30T10:26:39.638Z,998.37
2018-03-30T10:27:39.637Z,998.38
2018-03-30T10:28:39.640Z,998.34
2018-03-30T10:29:39.613Z,998.30
2018-03-30T10:30:39.592Z,998.35
2018-03-30T10:31:39.601Z,998.35
2018-03-30T10:32:39.580Z,998.34
2018-03-30T10:33:39.559Z,998.34
2018-03-30T10:34:40.320Z,998.36
2018-03-30T10:35:39.570Z,998.25
2018-03-30T10:36:39.544Z,998.27
2018-03-30T10:37:42.090Z,998.29
2018-03-30T10:38:39.535Z,998.32
2018-03-30T10:39:39.533Z,998.24
2018-03-30T10:40:39.535Z,998.21
2018-03-30T10:41:39.528Z,998.18
2018-03-30T10:42:39.613Z,998.15
2018-03-30T10:43:39.497Z,998.15
2018-03-30T10:44:39.494Z,998.09
2018-03-30T10:45:39.493Z,998.09
2018-03-30T10:46:39.500Z,998.01
2018-03-30T10:47:39.466Z,997.99
2018-03-30T10:48:39.448Z,998.01
2018-03-30T10:49:39.428Z,997.93
2018-03-30T10:50:39.444Z,997.93
2018-03-30T10:51:40.747Z,997.88
2018-03-30T10:52:41.087Z,997.87
2018-03-30T10:53:39.495Z,997.91
2018-03-30T10:54:39.393Z,997.78
2018-03-30T10:55:39.386Z,997.80
2018-03-30T10:56:39.396Z,997.80
2018-03-30T10:57:39.415Z,997.77
2018-03-30T10:58:39.403Z,997.70
2018-03-30T10:59:39.399Z,997.65
2018-03-30T11:00:40.323Z,997.66
2018-03-30T11:01:39.325Z,997.65
2018-03-30T11:02:40.229Z,997.57
2018-03-30T11:03:47.108Z,997.57
2018-03-30T11:04:39.348Z,997.54
2018-03-30T11:05:39.339Z,997.50
2018-03-30T11:06:39.310Z,997.44
2018-03-30T11:07:39.319Z,997.54
2018-03-30T11:08:39.277Z,997.55
2018-03-30T11:09:39.374Z,997.54
2018-03-30T11:10:39.319Z,997.45
2018-03-30T11:11:41.033Z,997.47
2018-03-30T11:12:39.258Z,997.45
2018-03-30T11:13:40.129Z,997.35
2018-03-30T11:14:42.033Z,997.30
2018-03-30T11:15:39.222Z,997.30
2018-03-30T11:16:39.253Z,997.29
2018-03-30T11:17:39.208Z,997.33
2018-03-30T11:18:54.435Z,997.30
2018-03-30T11:19:45.104Z,997.30
2018-03-30T11:20:40.091Z,997.16
2018-03-30T11:21:44.662Z,997.10
2018-03-30T11:22:40.210Z,997.05
2018-03-30T11:23:39.150Z,996.94
2018-03-30T11:25:00.172Z,996.92
2018-03-30T11:25:44.601Z,996.94
2018-03-30T11:26:54.354Z,996.99
2018-03-30T11:27:40.140Z,996.93
2018-03-30T11:28:39.173Z,996.85
2018-03-30T11:29:39.123Z,996.77
2018-03-30T11:31:39.101Z,996.77
2018-03-30T11:32:41.877Z,996.66
2018-03-30T11:33:44.244Z,996.66
2018-03-30T11:34:39.119Z,996.63
2018-03-30T11:35:39.071Z,996.61
2018-03-30T11:36:39.078Z,996.64
2018-03-30T11:37:39.069Z,996.61
2018-03-30T11:38:39.065Z,996.53
2018-03-30T11:39:39.050Z,996.59
2018-03-30T11:40:39.038Z,996.62
2018-03-30T11:41:39.025Z,996.56
2018-03-30T11:42:39.037Z,996.61
2018-03-30T11:43:39.006Z,996.61
2018-03-30T11:44:39.077Z,996.56
2018-03-30T11:45:39.003Z,996.57
2018-03-30T11:47:00.012Z,996.58
2018-03-30T11:47:39.091Z,996.56
2018-03-30T11:48:39.707Z,996.52
2018-03-30T11:49:39.538Z,996.50
2018-03-30T11:50:38.980Z,996.54
2018-03-30T11:51:39.142Z,996.51
2018-03-30T11:52:38.950Z,996.48
2018-03-30T11:53:39.593Z,996.48
2018-03-30T11:54:39.643Z,996.54
2018-03-30T11:55:45.618Z,996.57
2018-03-30T11:56:39.647Z,996.65
2018-03-30T11:57:39.000Z,996.71
2018-03-30T11:58:38.986Z,996.71
2018-03-30T11:59:39.014Z,996.77
2018-03-30T12:00:38.893Z,996.70
2018-03-30T12:01:38.939Z,996.73
2018-03-30T12:02:38.914Z,996.76
2018-03-30T12:03:38.890Z,996.80
2018-03-30T12:04:39.635Z,996.80
2018-03-30T12:05:38.905Z,996.80
2018-03-30T12:06:38.926Z,996.75
2018-03-30T12:07:40.735Z,996.74
2018-03-30T12:08:38.983Z,996.72
2018-03-30T12:09:53.673Z,996.69
2018-03-30T12:10:38.832Z,996.75
2018-03-30T12:11:39.959Z,996.71
2018-03-30T12:12:38.842Z,996.63
2018-03-30T12:13:38.875Z,996.57
2018-03-30T12:14:38.824Z,996.63